sensor_id;sensor_type;location;lat;lon;timestamp;P1;durP1;ratioP1;P2;durP2;ratioP2
68108;SDS011;54893;49.864;19.084;2023-04-15T00:00:49;2.27;;;0.60;;
68108;SDS011;54893;49.864;19.084;2023-04-15T00:05:51;2.10;;;0.50;;
68108;SDS011;54893;49.864;19.084;2023-04-15T00:10:52;2.28;;;0.60;;
68108;SDS011;54893;49.864;19.084;2023-04-15T00:15:52;2.08;;;0.50;;
68108;SDS011;54893;49.864;19.084;2023-04-15T00:20:52;2.33;;;0.60;;
68108;SDS011;54893;49.864;19.084;2023-04-15T00:25:53;3.05;;;0.90;;
68108;SDS011;54893;49.864;19.084;2023-04-15T00:30:54;3.83;;;0.70;;
68108;SDS011;54893;49.864;19.084;2023-04-15T00:35:54;2.47;;;0.65;;
68108;SDS011;54893;49.864;19.084;2023-04-15T00:40:54;3.37;;;0.80;;
68108;SDS011;54893;49.864;19.084;2023-04-15T00:45:55;2.20;;;0.70;;
68108;SDS011;54893;49.864;19.084;2023-04-15T00:50:57;2.97;;;0.65;;
68108;SDS011;54893;49.864;19.084;2023-04-15T00:55:58;2.27;;;0.60;;
68108;SDS011;54893;49.864;19.084;2023-04-15T01:00:58;3.70;;;1.13;;
68108;SDS011;54893;49.864;19.084;2023-04-15T01:05:59;3.90;;;1.27;;
68108;SDS011;54893;49.864;19.084;2023-04-15T01:11:00;4.57;;;1.33;;
68108;SDS011;54893;49.864;19.084;2023-04-15T01:16:02;4.40;;;1.63;;
68108;SDS011;54893;49.864;19.084;2023-04-15T01:21:03;3.40;;;1.10;;
68108;SDS011;54893;49.864;19.084;2023-04-15T01:26:07;3.28;;;1.00;;
68108;SDS011;54893;49.864;19.084;2023-04-15T01:31:09;2.83;;;1.00;;
68108;SDS011;54893;49.864;19.084;2023-04-15T01:36:11;4.13;;;1.50;;
68108;SDS011;54893;49.864;19.084;2023-04-15T01:41:12;4.90;;;1.40;;
68108;SDS011;54893;49.864;19.084;2023-04-15T01:46:13;4.53;;;1.30;;
68108;SDS011;54893;49.864;19.084;2023-04-15T01:51:14;8.45;;;3.35;;
68108;SDS011;54893;49.864;19.084;2023-04-15T01:56:14;6.67;;;2.90;;
68108;SDS011;54893;49.864;19.084;2023-04-15T02:01:15;5.93;;;1.80;;
68108;SDS011;54893;49.864;19.084;2023-04-15T02:06:16;4.63;;;1.67;;
68108;SDS011;54893;49.864;19.084;2023-04-15T02:11:17;7.40;;;2.27;;
68108;SDS011;54893;49.864;19.084;2023-04-15T02:16:18;5.65;;;2.10;;
68108;SDS011;54893;49.864;19.084;2023-04-15T02:21:19;7.17;;;2.40;;
68108;SDS011;54893;49.864;19.084;2023-04-15T02:26:19;5.40;;;2.20;;
68108;SDS011;54893;49.864;19.084;2023-04-15T02:31:21;7.20;;;2.40;;
68108;SDS011;54893;49.864;19.084;2023-04-15T02:36:21;7.77;;;2.30;;
68108;SDS011;54893;49.864;19.084;2023-04-15T02:41:22;6.50;;;2.60;;
68108;SDS011;54893;49.864;19.084;2023-04-15T02:46:26;9.43;;;3.50;;
68108;SDS011;54893;49.864;19.084;2023-04-15T02:51:29;7.32;;;2.67;;
68108;SDS011;54893;49.864;19.084;2023-04-15T02:56:31;8.93;;;2.50;;
68108;SDS011;54893;49.864;19.084;2023-04-15T03:01:31;6.63;;;2.40;;
68108;SDS011;54893;49.864;19.084;2023-04-15T03:06:31;6.80;;;2.30;;
68108;SDS011;54893;49.864;19.084;2023-04-15T03:11:32;6.87;;;2.50;;
68108;SDS011;54893;49.864;19.084;2023-04-15T03:16:32;6.00;;;2.30;;
68108;SDS011;54893;49.864;19.084;2023-04-15T03:21:32;7.60;;;2.00;;
68108;SDS011;54893;49.864;19.084;2023-04-15T03:26:33;5.03;;;2.00;;
68108;SDS011;54893;49.864;19.084;2023-04-15T03:31:33;6.20;;;1.87;;
68108;SDS011;54893;49.864;19.084;2023-04-15T03:36:33;6.50;;;1.80;;
68108;SDS011;54893;49.864;19.084;2023-04-15T03:41:34;5.67;;;2.00;;
68108;SDS011;54893;49.864;19.084;2023-04-15T03:46:34;5.30;;;2.00;;
68108;SDS011;54893;49.864;19.084;2023-04-15T03:51:35;6.47;;;2.00;;
68108;SDS011;54893;49.864;19.084;2023-04-15T03:56:35;6.60;;;2.00;;
68108;SDS011;54893;49.864;19.084;2023-04-15T04:01:36;6.07;;;2.10;;
68108;SDS011;54893;49.864;19.084;2023-04-15T04:06:36;6.07;;;2.00;;
68108;SDS011;54893;49.864;19.084;2023-04-15T04:11:37;4.80;;;1.87;;
68108;SDS011;54893;49.864;19.084;2023-04-15T04:16:37;5.13;;;1.97;;
68108;SDS011;54893;49.864;19.084;2023-04-15T04:21:37;5.47;;;2.07;;
68108;SDS011;54893;49.864;19.084;2023-04-15T04:26:38;5.25;;;1.83;;
68108;SDS011;54893;49.864;19.084;2023-04-15T04:31:38;6.40;;;2.70;;
68108;SDS011;54893;49.864;19.084;2023-04-15T04:36:39;5.93;;;2.37;;
68108;SDS011;54893;49.864;19.084;2023-04-15T04:41:39;6.60;;;2.00;;
68108;SDS011;54893;49.864;19.084;2023-04-15T04:46:40;4.70;;;1.90;;
68108;SDS011;54893;49.864;19.084;2023-04-15T04:51:41;6.43;;;2.13;;
68108;SDS011;54893;49.864;19.084;2023-04-15T04:56:41;14.20;;;8.70;;
68108;SDS011;54893;49.864;19.084;2023-04-15T05:01:41;20.38;;;11.40;;
68108;SDS011;54893;49.864;19.084;2023-04-15T05:06:42;17.13;;;7.10;;
68108;SDS011;54893;49.864;19.084;2023-04-15T05:11:42;26.23;;;9.67;;
68108;SDS011;54893;49.864;19.084;2023-04-15T05:16:42;21.17;;;7.90;;
68108;SDS011;54893;49.864;19.084;2023-04-15T05:21:42;13.90;;;5.77;;
68108;SDS011;54893;49.864;19.084;2023-04-15T05:26:43;12.73;;;5.10;;
68108;SDS011;54893;49.864;19.084;2023-04-15T05:31:43;19.27;;;8.20;;
68108;SDS011;54893;49.864;19.084;2023-04-15T05:36:44;14.10;;;6.10;;
68108;SDS011;54893;49.864;19.084;2023-04-15T05:41:44;13.90;;;5.67;;
68108;SDS011;54893;49.864;19.084;2023-04-15T05:46:45;8.23;;;3.83;;
68108;SDS011;54893;49.864;19.084;2023-04-15T05:51:46;9.77;;;3.90;;
68108;SDS011;54893;49.864;19.084;2023-04-15T05:56:47;10.40;;;3.58;;
68108;SDS011;54893;49.864;19.084;2023-04-15T06:01:48;7.53;;;3.42;;
68108;SDS011;54893;49.864;19.084;2023-04-15T06:06:48;5.57;;;2.35;;
68108;SDS011;54893;49.864;19.084;2023-04-15T06:11:49;8.43;;;2.60;;
68108;SDS011;54893;49.864;19.084;2023-04-15T06:16:50;5.10;;;2.17;;
68108;SDS011;54893;49.864;19.084;2023-04-15T06:21:51;7.30;;;2.90;;
68108;SDS011;54893;49.864;19.084;2023-04-15T06:26:51;9.47;;;4.90;;
68108;SDS011;54893;49.864;19.084;2023-04-15T06:31:52;11.50;;;4.20;;
68108;SDS011;54893;49.864;19.084;2023-04-15T06:36:52;9.53;;;4.30;;
68108;SDS011;54893;49.864;19.084;2023-04-15T06:41:53;8.63;;;3.67;;
68108;SDS011;54893;49.864;19.084;2023-04-15T06:46:54;7.67;;;3.40;;
68108;SDS011;54893;49.864;19.084;2023-04-15T06:51:54;10.03;;;3.07;;
68108;SDS011;54893;49.864;19.084;2023-04-15T06:56:55;6.77;;;3.00;;
68108;SDS011;54893;49.864;19.084;2023-04-15T07:01:55;7.73;;;3.33;;
68108;SDS011;54893;49.864;19.084;2023-04-15T07:06:56;8.73;;;2.80;;
68108;SDS011;54893;49.864;19.084;2023-04-15T07:11:56;6.73;;;2.40;;
68108;SDS011;54893;49.864;19.084;2023-04-15T07:16:56;5.53;;;2.60;;
68108;SDS011;54893;49.864;19.084;2023-04-15T07:21:57;6.90;;;2.60;;
68108;SDS011;54893;49.864;19.084;2023-04-15T07:26:57;6.90;;;2.15;;
68108;SDS011;54893;49.864;19.084;2023-04-15T07:31:58;10.47;;;3.30;;
68108;SDS011;54893;49.864;19.084;2023-04-15T07:36:58;7.83;;;2.67;;
68108;SDS011;54893;49.864;19.084;2023-04-15T07:41:58;24.70;;;9.10;;
68108;SDS011;54893;49.864;19.084;2023-04-15T07:46:59;6.40;;;2.73;;
68108;SDS011;54893;49.864;19.084;2023-04-15T07:52:00;18.42;;;8.95;;
68108;SDS011;54893;49.864;19.084;2023-04-15T07:57:01;9.57;;;4.80;;
68108;SDS011;54893;49.864;19.084;2023-04-15T08:02:02;9.37;;;4.53;;
68108;SDS011;54893;49.864;19.084;2023-04-15T08:07:03;30.42;;;18.73;;
68108;SDS011;54893;49.864;19.084;2023-04-15T08:12:04;10.93;;;6.50;;
68108;SDS011;54893;49.864;19.084;2023-04-15T08:17:04;30.05;;;22.83;;
68108;SDS011;54893;49.864;19.084;2023-04-15T08:22:05;8.23;;;3.10;;
68108;SDS011;54893;49.864;19.084;2023-04-15T08:27:06;17.40;;;5.57;;
68108;SDS011;54893;49.864;19.084;2023-04-15T08:32:07;125.43;;;41.47;;
68108;SDS011;54893;49.864;19.084;2023-04-15T08:37:08;11.77;;;4.25;;
68108;SDS011;54893;49.864;19.084;2023-04-15T08:42:15;10.30;;;3.30;;
68108;SDS011;54893;49.864;19.084;2023-04-15T08:47:16;6.53;;;2.63;;
68108;SDS011;54893;49.864;19.084;2023-04-15T08:52:20;11.48;;;3.90;;
68108;SDS011;54893;49.864;19.084;2023-04-15T08:57:23;9.80;;;4.27;;
68108;SDS011;54893;49.864;19.084;2023-04-15T09:02:26;28.50;;;10.80;;
68108;SDS011;54893;49.864;19.084;2023-04-15T09:07:26;11.20;;;4.60;;
68108;SDS011;54893;49.864;19.084;2023-04-15T09:12:27;18.27;;;6.10;;
68108;SDS011;54893;49.864;19.084;2023-04-15T09:17:27;16.67;;;6.90;;
68108;SDS011;54893;49.864;19.084;2023-04-15T09:22:31;8.33;;;4.43;;
68108;SDS011;54893;49.864;19.084;2023-04-15T09:27:35;10.20;;;4.85;;
68108;SDS011;54893;49.864;19.084;2023-04-15T09:32:35;9.60;;;4.60;;
68108;SDS011;54893;49.864;19.084;2023-04-15T09:37:50;6.32;;;3.40;;
68108;SDS011;54893;49.864;19.084;2023-04-15T09:42:54;7.60;;;2.77;;
68108;SDS011;54893;49.864;19.084;2023-04-15T09:47:56;13.75;;;7.20;;
68108;SDS011;54893;49.864;19.084;2023-04-15T09:52:57;6.93;;;4.00;;
68108;SDS011;54893;49.864;19.084;2023-04-15T09:57:58;5.75;;;2.75;;
68108;SDS011;54893;49.864;19.084;2023-04-15T10:02:58;9.13;;;5.23;;
68108;SDS011;54893;49.864;19.084;2023-04-15T10:07:59;6.90;;;3.00;;
68108;SDS011;54893;49.864;19.084;2023-04-15T10:13:01;6.95;;;3.60;;
68108;SDS011;54893;49.864;19.084;2023-04-15T10:18:02;7.73;;;3.97;;
68108;SDS011;54893;49.864;19.084;2023-04-15T10:23:04;6.53;;;3.10;;
68108;SDS011;54893;49.864;19.084;2023-04-15T10:28:05;6.07;;;2.90;;
68108;SDS011;54893;49.864;19.084;2023-04-15T10:33:08;6.05;;;3.30;;
68108;SDS011;54893;49.864;19.084;2023-04-15T10:38:32;73.35;;;17.48;;
68108;SDS011;54893;49.864;19.084;2023-04-15T10:43:31;7.20;;;3.50;;
68108;SDS011;54893;49.864;19.084;2023-04-15T10:48:31;6.50;;;3.60;;
68108;SDS011;54893;49.864;19.084;2023-04-15T10:53:32;7.43;;;3.40;;
68108;SDS011;54893;49.864;19.084;2023-04-15T10:58:42;5.70;;;2.97;;
68108;SDS011;54893;49.864;19.084;2023-04-15T11:03:43;6.32;;;3.40;;
68108;SDS011;54893;49.864;19.084;2023-04-15T11:13:52;5.77;;;2.83;;
68108;SDS011;54893;49.864;19.084;2023-04-15T11:18:55;5.68;;;3.00;;
68108;SDS011;54893;49.864;19.084;2023-04-15T11:23:56;5.43;;;2.90;;
68108;SDS011;54893;49.864;19.084;2023-04-15T11:28:56;4.37;;;2.43;;
68108;SDS011;54893;49.864;19.084;2023-04-15T11:33:58;6.03;;;2.63;;
68108;SDS011;54893;49.864;19.084;2023-04-15T11:39:00;4.77;;;2.30;;
68108;SDS011;54893;49.864;19.084;2023-04-15T11:44:00;6.97;;;2.50;;
68108;SDS011;54893;49.864;19.084;2023-04-15T11:49:01;6.83;;;2.80;;
68108;SDS011;54893;49.864;19.084;2023-04-15T11:54:01;5.27;;;2.87;;
68108;SDS011;54893;49.864;19.084;2023-04-15T11:59:02;4.95;;;2.60;;
68108;SDS011;54893;49.864;19.084;2023-04-15T12:04:09;8.40;;;3.17;;
68108;SDS011;54893;49.864;19.084;2023-04-15T12:09:14;6.97;;;2.90;;
68108;SDS011;54893;49.864;19.084;2023-04-15T12:14:25;5.10;;;2.97;;
68108;SDS011;54893;49.864;19.084;2023-04-15T12:19:30;28.73;;;7.80;;
68108;SDS011;54893;49.864;19.084;2023-04-15T12:24:35;11.45;;;3.95;;
68108;SDS011;54893;49.864;19.084;2023-04-15T12:29:37;5.67;;;2.80;;
68108;SDS011;54893;49.864;19.084;2023-04-15T12:39:44;12.83;;;4.47;;
68108;SDS011;54893;49.864;19.084;2023-04-15T12:44:47;5.75;;;2.90;;
68108;SDS011;54893;49.864;19.084;2023-04-15T12:49:48;5.23;;;2.77;;
68108;SDS011;54893;49.864;19.084;2023-04-15T12:54:48;5.47;;;2.93;;
68108;SDS011;54893;49.864;19.084;2023-04-15T12:59:48;5.93;;;3.17;;
68108;SDS011;54893;49.864;19.084;2023-04-15T13:04:49;7.73;;;3.90;;
68108;SDS011;54893;49.864;19.084;2023-04-15T13:09:51;7.15;;;3.30;;
68108;SDS011;54893;49.864;19.084;2023-04-15T13:14:51;8.27;;;3.20;;
68108;SDS011;54893;49.864;19.084;2023-04-15T13:19:51;7.80;;;3.50;;
68108;SDS011;54893;49.864;19.084;2023-04-15T13:24:52;6.50;;;3.07;;
68108;SDS011;54893;49.864;19.084;2023-04-15T13:29:52;9.95;;;3.53;;
68108;SDS011;54893;49.864;19.084;2023-04-15T13:34:53;8.50;;;4.45;;
68108;SDS011;54893;49.864;19.084;2023-04-15T13:39:55;9.17;;;4.83;;
68108;SDS011;54893;49.864;19.084;2023-04-15T13:44:56;8.88;;;4.88;;
68108;SDS011;54893;49.864;19.084;2023-04-15T13:49:56;8.35;;;4.43;;
68108;SDS011;54893;49.864;19.084;2023-04-15T13:54:56;6.67;;;3.27;;
68108;SDS011;54893;49.864;19.084;2023-04-15T13:59:57;7.00;;;3.17;;
68108;SDS011;54893;49.864;19.084;2023-04-15T14:04:57;6.63;;;3.20;;
68108;SDS011;54893;49.864;19.084;2023-04-15T14:09:58;8.50;;;3.80;;
68108;SDS011;54893;49.864;19.084;2023-04-15T14:14:59;9.10;;;4.00;;
68108;SDS011;54893;49.864;19.084;2023-04-15T14:19:59;12.47;;;4.87;;
68108;SDS011;54893;49.864;19.084;2023-04-15T14:25:00;19.97;;;7.10;;
68108;SDS011;54893;49.864;19.084;2023-04-15T14:30:00;8.87;;;4.73;;
68108;SDS011;54893;49.864;19.084;2023-04-15T14:35:01;9.23;;;4.50;;
68108;SDS011;54893;49.864;19.084;2023-04-15T14:40:01;14.10;;;6.43;;
68108;SDS011;54893;49.864;19.084;2023-04-15T14:45:02;13.97;;;5.60;;
68108;SDS011;54893;49.864;19.084;2023-04-15T14:50:02;9.60;;;4.37;;
68108;SDS011;54893;49.864;19.084;2023-04-15T14:55:04;13.33;;;7.03;;
68108;SDS011;54893;49.864;19.084;2023-04-15T15:00:06;22.85;;;9.70;;
68108;SDS011;54893;49.864;19.084;2023-04-15T15:05:09;17.83;;;8.75;;
68108;SDS011;54893;49.864;19.084;2023-04-15T15:10:09;18.80;;;8.87;;
68108;SDS011;54893;49.864;19.084;2023-04-15T15:15:10;12.00;;;4.83;;
68108;SDS011;54893;49.864;19.084;2023-04-15T15:20:10;8.13;;;3.90;;
68108;SDS011;54893;49.864;19.084;2023-04-15T15:25:10;8.97;;;3.60;;
68108;SDS011;54893;49.864;19.084;2023-04-15T15:30:11;7.77;;;3.63;;
68108;SDS011;54893;49.864;19.084;2023-04-15T15:35:12;11.38;;;5.53;;
68108;SDS011;54893;49.864;19.084;2023-04-15T15:40:12;8.97;;;3.33;;
68108;SDS011;54893;49.864;19.084;2023-04-15T15:45:13;7.80;;;2.88;;
68108;SDS011;54893;49.864;19.084;2023-04-15T15:50:13;7.37;;;3.43;;
68108;SDS011;54893;49.864;19.084;2023-04-15T15:55:13;8.43;;;4.80;;
68108;SDS011;54893;49.864;19.084;2023-04-15T16:00:14;9.67;;;4.37;;
68108;SDS011;54893;49.864;19.084;2023-04-15T16:05:14;9.75;;;4.93;;
68108;SDS011;54893;49.864;19.084;2023-04-15T16:10:15;10.00;;;3.30;;
68108;SDS011;54893;49.864;19.084;2023-04-15T16:15:15;19.40;;;8.33;;
68108;SDS011;54893;49.864;19.084;2023-04-15T16:20:15;14.90;;;7.10;;
68108;SDS011;54893;49.864;19.084;2023-04-15T16:25:16;11.97;;;5.00;;
68108;SDS011;54893;49.864;19.084;2023-04-15T16:30:17;10.57;;;5.27;;
68108;SDS011;54893;49.864;19.084;2023-04-15T16:35:17;10.57;;;5.33;;
68108;SDS011;54893;49.864;19.084;2023-04-15T16:40:17;14.80;;;6.00;;
68108;SDS011;54893;49.864;19.084;2023-04-15T16:45:18;32.87;;;13.70;;
68108;SDS011;54893;49.864;19.084;2023-04-15T16:50:18;26.40;;;11.00;;
68108;SDS011;54893;49.864;19.084;2023-04-15T16:55:18;40.30;;;18.70;;
68108;SDS011;54893;49.864;19.084;2023-04-15T17:00:19;41.87;;;22.27;;
68108;SDS011;54893;49.864;19.084;2023-04-15T17:05:19;38.53;;;16.73;;
68108;SDS011;54893;49.864;19.084;2023-04-15T17:10:20;35.70;;;15.27;;
68108;SDS011;54893;49.864;19.084;2023-04-15T17:15:21;37.22;;;16.30;;
68108;SDS011;54893;49.864;19.084;2023-04-15T17:20:22;40.67;;;18.20;;
68108;SDS011;54893;49.864;19.084;2023-04-15T17:25:22;33.23;;;15.53;;
68108;SDS011;54893;49.864;19.084;2023-04-15T17:30:23;32.43;;;14.30;;
68108;SDS011;54893;49.864;19.084;2023-04-15T17:35:23;26.93;;;12.43;;
68108;SDS011;54893;49.864;19.084;2023-04-15T17:40:25;22.15;;;10.75;;
68108;SDS011;54893;49.864;19.084;2023-04-15T17:45:25;24.07;;;10.17;;
68108;SDS011;54893;49.864;19.084;2023-04-15T17:50:25;27.20;;;11.40;;
68108;SDS011;54893;49.864;19.084;2023-04-15T17:55:26;29.70;;;12.83;;
68108;SDS011;54893;49.864;19.084;2023-04-15T18:00:26;33.67;;;12.93;;
68108;SDS011;54893;49.864;19.084;2023-04-15T18:05:27;31.93;;;13.23;;
68108;SDS011;54893;49.864;19.084;2023-04-15T18:10:28;42.25;;;17.85;;
68108;SDS011;54893;49.864;19.084;2023-04-15T18:15:29;44.70;;;18.17;;
68108;SDS011;54893;49.864;19.084;2023-04-15T18:20:30;44.45;;;19.08;;
68108;SDS011;54893;49.864;19.084;2023-04-15T18:25:32;52.72;;;22.88;;
68108;SDS011;54893;49.864;19.084;2023-04-15T18:30:33;61.87;;;26.63;;
68108;SDS011;54893;49.864;19.084;2023-04-15T18:35:33;60.53;;;26.60;;
68108;SDS011;54893;49.864;19.084;2023-04-15T18:40:34;56.37;;;24.80;;
68108;SDS011;54893;49.864;19.084;2023-04-15T18:45:35;54.75;;;23.05;;
68108;SDS011;54893;49.864;19.084;2023-04-15T18:50:35;58.67;;;24.80;;
68108;SDS011;54893;49.864;19.084;2023-04-15T18:55:35;62.03;;;26.95;;
68108;SDS011;54893;49.864;19.084;2023-04-15T19:00:37;72.50;;;31.10;;
68108;SDS011;54893;49.864;19.084;2023-04-15T19:05:40;80.95;;;32.63;;
68108;SDS011;54893;49.864;19.084;2023-04-15T19:10:41;93.37;;;36.93;;
68108;SDS011;54893;49.864;19.084;2023-04-15T19:15:41;89.15;;;36.58;;
68108;SDS011;54893;49.864;19.084;2023-04-15T19:20:42;77.85;;;32.78;;
68108;SDS011;54893;49.864;19.084;2023-04-15T19:25:42;62.10;;;27.75;;
68108;SDS011;54893;49.864;19.084;2023-04-15T19:30:43;104.13;;;44.40;;
68108;SDS011;54893;49.864;19.084;2023-04-15T19:35:43;93.37;;;40.73;;
68108;SDS011;54893;49.864;19.084;2023-04-15T19:40:43;113.83;;;50.77;;
68108;SDS011;54893;49.864;19.084;2023-04-15T19:45:44;115.73;;;51.33;;
68108;SDS011;54893;49.864;19.084;2023-04-15T19:50:45;108.45;;;48.50;;
68108;SDS011;54893;49.864;19.084;2023-04-15T19:55:46;108.03;;;51.70;;
68108;SDS011;54893;49.864;19.084;2023-04-15T20:00:47;99.05;;;46.95;;
68108;SDS011;54893;49.864;19.084;2023-04-15T20:05:47;82.67;;;36.07;;
68108;SDS011;54893;49.864;19.084;2023-04-15T20:10:48;75.73;;;33.77;;
68108;SDS011;54893;49.864;19.084;2023-04-15T20:15:48;68.83;;;30.07;;
68108;SDS011;54893;49.864;19.084;2023-04-15T20:20:48;69.20;;;29.87;;
68108;SDS011;54893;49.864;19.084;2023-04-15T20:25:49;65.80;;;27.60;;
68108;SDS011;54893;49.864;19.084;2023-04-15T20:30:49;90.60;;;40.43;;
68108;SDS011;54893;49.864;19.084;2023-04-15T20:35:53;99.70;;;43.13;;
68108;SDS011;54893;49.864;19.084;2023-04-15T20:40:53;88.78;;;39.63;;
68108;SDS011;54893;49.864;19.084;2023-04-15T20:45:54;92.90;;;41.43;;
68108;SDS011;54893;49.864;19.084;2023-04-15T20:50:55;101.27;;;41.67;;
68108;SDS011;54893;49.864;19.084;2023-04-15T20:55:55;103.37;;;44.77;;
68108;SDS011;54893;49.864;19.084;2023-04-15T21:00:55;85.20;;;39.00;;
68108;SDS011;54893;49.864;19.084;2023-04-15T21:05:57;75.57;;;33.30;;
68108;SDS011;54893;49.864;19.084;2023-04-15T21:10:57;60.27;;;25.80;;
68108;SDS011;54893;49.864;19.084;2023-04-15T21:15:58;59.20;;;26.37;;
68108;SDS011;54893;49.864;19.084;2023-04-15T21:20:59;75.37;;;34.63;;
68108;SDS011;54893;49.864;19.084;2023-04-15T21:26:00;92.20;;;42.88;;
68108;SDS011;54893;49.864;19.084;2023-04-15T21:31:01;60.33;;;26.57;;
68108;SDS011;54893;49.864;19.084;2023-04-15T21:36:01;63.63;;;26.93;;
68108;SDS011;54893;49.864;19.084;2023-04-15T21:41:01;95.30;;;43.00;;
68108;SDS011;54893;49.864;19.084;2023-04-15T21:46:05;72.10;;;32.53;;
68108;SDS011;54893;49.864;19.084;2023-04-15T21:51:06;69.90;;;30.67;;
68108;SDS011;54893;49.864;19.084;2023-04-15T21:56:06;66.80;;;29.63;;
68108;SDS011;54893;49.864;19.084;2023-04-15T22:01:07;65.40;;;30.55;;
68108;SDS011;54893;49.864;19.084;2023-04-15T22:06:08;69.40;;;29.80;;
68108;SDS011;54893;49.864;19.084;2023-04-15T22:11:08;73.40;;;33.17;;
68108;SDS011;54893;49.864;19.084;2023-04-15T22:16:16;74.90;;;31.27;;
68108;SDS011;54893;49.864;19.084;2023-04-15T22:21:16;69.37;;;30.60;;
68108;SDS011;54893;49.864;19.084;2023-04-15T22:26:17;69.57;;;30.83;;
68108;SDS011;54893;49.864;19.084;2023-04-15T22:31:17;78.87;;;36.33;;
68108;SDS011;54893;49.864;19.084;2023-04-15T22:36:17;55.17;;;25.03;;
68108;SDS011;54893;49.864;19.084;2023-04-15T22:41:18;50.72;;;21.77;;
68108;SDS011;54893;49.864;19.084;2023-04-15T22:46:18;48.30;;;19.87;;
68108;SDS011;54893;49.864;19.084;2023-04-15T22:51:22;45.23;;;18.43;;
68108;SDS011;54893;49.864;19.084;2023-04-15T22:56:25;38.70;;;17.23;;
68108;SDS011;54893;49.864;19.084;2023-04-15T23:01:26;35.10;;;14.47;;
68108;SDS011;54893;49.864;19.084;2023-04-15T23:06:26;22.57;;;11.10;;
68108;SDS011;54893;49.864;19.084;2023-04-15T23:11:26;19.02;;;9.50;;
68108;SDS011;54893;49.864;19.084;2023-04-15T23:16:27;17.07;;;7.83;;
68108;SDS011;54893;49.864;19.084;2023-04-15T23:21:27;18.02;;;7.35;;
68108;SDS011;54893;49.864;19.084;2023-04-15T23:26:28;17.97;;;7.73;;
68108;SDS011;54893;49.864;19.084;2023-04-15T23:31:28;21.90;;;8.67;;
68108;SDS011;54893;49.864;19.084;2023-04-15T23:36:28;32.47;;;14.23;;
68108;SDS011;54893;49.864;19.084;2023-04-15T23:41:29;39.97;;;18.50;;
68108;SDS011;54893;49.864;19.084;2023-04-15T23:46:29;40.47;;;18.90;;
68108;SDS011;54893;49.864;19.084;2023-04-15T23:51:29;48.80;;;21.65;;
68108;SDS011;54893;49.864;19.084;2023-04-15T23:56:30;59.23;;;24.57;;
